Time;durP1;ratioP1;P1;durP2;ratioP2;P2;SDS_P1;SDS_P2;PMS_P1;PMS_P2;Temp;Humidity;BMP_temperature;BMP_pressure;BME280_temperature;BME280_humidity;BME280_pressure;Samples;Min_cycle;Max_cycle;Signal;HPM_P1;HPM_P2
2022/08/16 00:00:19;;;;;;;10.67;4.10;;;;;;;25.36;77.79;98890.51;1607418;88;22041;-59
2022/08/16 00:02:45;;;;;;;7.35;3.70;;;;;;;25.41;77.59;98886.27;1608496;88;21392;-59
2022/08/16 00:05:13;;;;;;;9.23;4.30;;;;;;;25.37;77.68;98893.52;1609007;87;21483;-59
2022/08/16 00:07:39;;;;;;;7.62;3.55;;;;;;;25.45;77.65;98882.70;1608256;88;21508;-59
2022/08/16 00:10:08;;;;;;;5.70;4.23;;;;;;;25.45;77.00;98881.36;1605343;88;21064;-59
2022/08/16 00:12:35;;;;;;;7.95;3.75;;;;;;;25.46;75.80;98876.30;1590319;88;21793;-58
2022/08/16 00:15:06;;;;;;;5.10;4.33;;;;;;;25.45;75.81;98875.98;1614361;88;21566;-59
2022/08/16 00:17:33;;;;;;;9.10;4.20;;;;;;;25.40;75.86;98877.84;1610230;88;21425;-59
2022/08/16 00:19:59;;;;;;;8.70;4.10;;;;;;;25.30;75.62;98877.75;1622004;88;21459;-59
2022/08/16 00:22:26;;;;;;;6.33;3.95;;;;;;;25.29;75.37;98876.09;1620629;88;21495;-59
2022/08/16 00:24:53;;;;;;;7.05;4.22;;;;;;;25.21;75.71;98878.30;1618113;88;21862;-59
2022/08/16 00:29:07;;;;;;;5.45;4.17;;;;;;;24.60;82.00;98895.58;1771069;80;23165;-58
2022/08/16 00:31:34;;;;;;;8.25;4.65;;;;;;;24.98;77.97;98884.49;1750032;81;21613;-58
2022/08/16 00:34:01;;;;;;;7.33;3.90;;;;;;;24.99;77.07;98877.25;1744594;81;22107;-58
2022/08/16 00:36:27;;;;;;;9.90;4.15;;;;;;;24.97;76.62;98876.59;1750607;80;21395;-59
2022/08/16 00:38:54;;;;;;;4.40;3.67;;;;;;;24.97;76.01;98874.73;1747610;81;21494;-58
2022/08/16 00:41:21;;;;;;;8.93;3.83;;;;;;;25.00;76.61;98885.66;1748085;80;21462;-59
2022/08/16 00:43:48;;;;;;;9.53;3.72;;;;;;;24.99;76.68;98882.11;1750468;81;20967;-59
2022/08/16 00:46:32;;;;;;;8.18;3.67;;;;;;;25.00;75.71;98878.94;1745565;81;21908;-63
2022/08/16 00:48:59;;;;;;;14.35;3.52;;;;;;;25.05;74.92;98879.23;1742920;81;20970;-61
2022/08/16 00:51:26;;;;;;;7.00;4.08;;;;;;;25.08;74.53;98880.23;1749391;81;21497;-60
2022/08/16 00:53:53;;;;;;;11.30;3.92;;;;;;;25.08;74.28;98882.91;1752358;79;21647;-61
2022/08/16 00:56:30;;;;;;;6.53;3.98;;;;;;;25.11;74.71;98887.95;1745365;79;20963;-60
2022/08/16 00:58:57;;;;;;;10.68;3.92;;;;;;;25.16;73.79;98892.78;1749267;80;21784;-59
2022/08/16 01:01:23;;;;;;;7.78;4.10;;;;;;;25.19;72.62;98891.92;1756195;80;21493;-59
2022/08/16 01:03:51;;;;;;;7.72;4.17;;;;;;;25.24;72.59;98899.48;1751613;80;21439;-59
2022/08/16 01:06:18;;;;;;;10.28;4.40;;;;;;;25.26;72.48;98902.85;1748658;80;21561;-59
2022/08/16 01:08:49;;;;;;;8.53;3.60;;;;;;;25.28;72.10;98901.30;1738595;81;21487;-59
2022/08/16 01:11:15;;;;;;;7.22;3.87;;;;;;;25.28;71.41;98901.30;1742166;79;21888;-60
2022/08/16 01:13:42;;;;;;;12.37;3.60;;;;;;;25.31;70.43;98902.30;1718501;81;21612;-60
2022/08/16 01:16:24;;;;;;;11.93;3.70;;;;;;;25.30;70.35;98903.30;1742602;81;21502;-60
2022/08/16 01:18:56;;;;;;;11.70;4.12;;;;;;;25.34;70.88;98909.52;1750288;81;20957;-61
2022/08/16 01:21:40;;;;;;;5.15;3.50;;;;;;;25.32;70.39;98910.20;1752854;79;21413;-61
2022/08/16 01:24:30;;;;;;;10.45;4.55;;;;;;;25.32;70.88;98910.72;1744458;81;21866;-59
2022/08/16 01:27:10;;;;;;;6.37;3.62;;;;;;;25.27;71.63;98914.44;1747362;80;21021;-60
2022/08/16 01:29:55;;;;;;;4.87;3.30;;;;;;;25.28;71.37;98920.14;1720561;80;21489;-61
2022/08/16 01:32:21;;;;;;;10.95;3.67;;;;;;;25.31;69.87;98900.44;1748879;81;21494;-60
2022/08/16 01:34:48;;;;;;;7.45;3.75;;;;;;;25.33;69.77;98886.30;1752227;81;21423;-60
2022/08/16 01:37:15;;;;;;;11.45;3.92;;;;;;;25.31;70.11;98884.81;1745990;79;21805;-60
2022/08/16 01:39:41;;;;;;;8.63;3.65;;;;;;;25.31;69.62;98879.44;1684023;81;21455;-60
2022/08/16 01:42:08;;;;;;;10.48;5.28;;;;;;;25.33;69.55;98878.23;1713687;81;21440;-60
2022/08/16 01:44:36;;;;;;;11.00;3.65;;;;;;;25.14;69.86;98848.58;1743193;80;21624;-60
2022/08/16 01:47:03;;;;;;;8.48;4.35;;;;;;;25.30;70.49;98879.95;1742388;81;21066;-60
2022/08/16 01:49:33;;;;;;;7.87;3.65;;;;;;;25.24;71.10;98876.12;1750558;79;21845;-60
2022/08/16 01:52:05;;;;;;;9.75;4.10;;;;;;;25.20;70.79;98878.82;1745430;81;21577;-60
2022/08/16 01:54:42;;;;;;;7.85;4.22;;;;;;;25.18;70.74;98873.27;1703352;81;21553;-60
2022/08/16 01:57:09;;;;;;;8.28;4.20;;;;;;;25.16;70.60;98873.44;1738880;79;21518;-60
2022/08/16 01:59:37;;;;;;;9.33;4.00;;;;;;;25.14;70.88;98877.33;1747807;79;21592;-60
2022/08/16 02:02:04;;;;;;;5.03;3.90;;;;;;;25.12;70.64;98872.13;1717253;81;21890;-60
2022/08/16 02:04:32;;;;;;;7.40;3.80;;;;;;;25.09;70.59;98877.88;1751638;79;21518;-62
2022/08/16 02:07:04;;;;;;;7.28;4.03;;;;;;;25.05;70.91;98868.47;1745832;81;21455;-60
2022/08/16 02:09:29;;;;;;;9.60;3.72;;;;;;;25.04;70.90;98862.78;1748707;80;21629;-60
2022/08/16 02:11:57;;;;;;;6.05;4.00;;;;;;;25.01;71.46;98857.23;1747467;81;21522;-61
2022/08/16 02:14:27;;;;;;;14.63;3.83;;;;;;;25.01;71.55;98850.50;1748853;80;21580;-60
2022/08/16 02:16:57;;;;;;;9.75;3.80;;;;;;;25.00;71.82;98841.30;1747419;81;21546;-60
2022/08/16 02:19:28;;;;;;;11.65;3.70;;;;;;;24.95;71.68;98840.47;1747154;79;21562;-60
2022/08/16 02:21:55;;;;;;;5.30;3.80;;;;;;;24.96;71.48;98830.06;1745117;79;21510;-61
2022/08/16 02:24:22;;;;;;;13.83;4.03;;;;;;;24.96;71.60;98828.72;1749698;80;21656;-60
2022/08/16 02:26:49;;;;;;;5.45;4.03;;;;;;;24.95;71.49;98833.75;1743365;81;25698;-59
2022/08/16 02:29:17;;;;;;;7.28;3.47;;;;;;;24.93;71.64;98825.55;1723397;81;21580;-59
2022/08/16 02:31:45;;;;;;;9.08;4.37;;;;;;;24.95;71.54;98820.30;1716385;81;21545;-59
2022/08/16 02:34:12;;;;;;;13.78;4.22;;;;;;;24.99;70.93;98824.82;1714167;81;21017;-58
2022/08/16 02:36:40;;;;;;;5.45;3.55;;;;;;;25.02;71.44;98827.99;1733820;81;27038;-59
2022/08/16 02:39:08;;;;;;;;;;;;;;;25.01;71.20;98824.96;1715901;81;21807;-59
2022/08/16 02:41:36;;;;;;;6.42;4.03;;;;;;;24.98;71.52;98827.20;1718635;81;20573;-59
2022/08/16 02:44:04;;;;;;;;;;;;;;;24.95;71.06;98828.89;1723059;81;21610;-59
2022/08/16 02:46:32;;;;;;;8.43;3.67;;;;;;;24.95;71.57;98814.92;1716837;81;20146;-59
2022/08/16 02:49:00;;;;;;;8.33;4.12;;;;;;;24.92;71.78;98815.30;1727697;81;21542;-61
2022/08/16 02:51:26;;;;;;;;;;;;;;;24.97;71.95;98818.27;1723653;81;22123;-59
2022/08/16 02:53:53;;;;;;;9.20;4.25;;;;;;;24.88;72.66;98815.30;1711775;81;20462;-59
2022/08/16 02:56:21;;;;;;;;;;;;;;;24.82;72.28;98825.43;1727066;81;21468;-59
2022/08/16 02:58:50;;;;;;;10.00;4.45;;;;;;;24.73;73.57;98825.14;1726533;81;20319;-59
2022/08/16 03:01:22;;;;;;;7.92;3.83;;;;;;;24.63;74.00;98818.66;1725953;81;21542;-59
2022/08/16 03:03:49;;;;;;;5.83;4.08;;;;;;;24.59;74.15;98820.84;1722599;81;21448;-59
2022/08/16 03:06:19;;;;;;;9.78;4.70;;;;;;;24.59;74.39;98811.44;1687687;81;21533;-59
2022/08/16 03:08:46;;;;;;;7.95;3.72;;;;;;;24.58;74.76;98815.64;1724157;81;21546;-59
2022/08/16 03:11:15;;;;;;;9.03;4.40;;;;;;;24.56;75.21;98811.78;1717053;81;21605;-59
2022/08/16 03:13:42;;;;;;;3.72;3.40;;;;;;;24.57;75.63;98813.47;1721669;81;21475;-59
2022/08/16 03:16:09;;;;;;;9.53;3.92;;;;;;;24.58;75.92;98813.81;1716682;81;22027;-59
2022/08/16 03:18:36;;;;;;;8.45;4.30;;;;;;;24.62;76.21;98823.20;1716435;81;21549;-59
2022/08/16 03:21:03;;;;;;;6.47;4.13;;;;;;;24.60;76.39;98818.99;1719550;81;20949;-61
2022/08/16 03:23:29;;;;;;;13.18;4.28;;;;;;;24.60;76.17;98819.85;1675502;83;21509;-61
2022/08/16 03:25:56;;;;;;;7.95;3.83;;;;;;;24.63;76.25;98811.93;1720788;81;21691;-60
2022/08/16 03:28:23;;;;;;;5.75;3.98;;;;;;;24.62;76.23;98815.62;1720782;81;21831;-60
2022/08/16 03:30:49;;;;;;;13.00;4.50;;;;;;;24.58;76.42;98814.30;1717390;81;21416;-60
2022/08/16 03:33:16;;;;;;;7.35;3.67;;;;;;;24.59;76.87;98820.02;1724723;81;21588;-60
2022/08/16 03:35:44;;;;;;;6.10;3.80;;;;;;;24.57;77.00;98809.95;1717090;81;21514;-59
2022/08/16 03:38:14;;;;;;;6.80;4.10;;;;;;;24.57;77.17;98805.41;1713754;81;21576;-59
2022/08/16 03:40:43;;;;;;;11.57;4.30;;;;;;;24.60;77.07;98805.07;1719093;81;21621;-59
2022/08/16 03:43:11;;;;;;;8.30;4.00;;;;;;;24.60;76.97;98802.87;1715028;81;21443;-59
2022/08/16 03:45:38;;;;;;;9.38;4.03;;;;;;;24.57;77.36;98805.93;1722836;81;21550;-59
2022/08/16 03:48:06;;;;;;;5.40;3.87;;;;;;;24.60;76.84;98805.55;1733322;81;21470;-60
2022/08/16 03:50:34;;;;;;;11.60;4.30;;;;;;;24.61;76.45;98806.73;1725456;81;21458;-61
2022/08/16 03:53:03;;;;;;;10.15;4.33;;;;;;;24.59;77.02;98808.76;1719577;81;21808;-59
2022/08/16 03:55:30;;;;;;;4.92;3.98;;;;;;;24.63;76.90;98813.28;1720754;81;21517;-62
2022/08/16 03:57:56;;;;;;;5.22;4.10;;;;;;;24.61;77.32;98815.30;1718833;81;21695;-60
2022/08/16 04:00:28;;;;;;;15.90;4.62;;;;;;;24.64;77.01;98817.66;1714505;81;21561;-60
2022/08/16 04:02:56;;;;;;;8.73;4.55;;;;;;;24.64;76.81;98811.77;1719515;81;21565;-61
2022/08/16 04:05:23;;;;;;;5.83;4.30;;;;;;;24.66;76.81;98813.77;1724170;81;21802;-60
2022/08/16 04:07:50;;;;;;;7.60;4.42;;;;;;;24.72;76.72;98811.39;1726947;81;21487;-60
2022/08/16 04:10:17;;;;;;;6.80;4.25;;;;;;;24.68;76.73;98809.05;1705753;81;21514;-60
2022/08/16 04:12:44;;;;;;;11.48;4.20;;;;;;;24.72;76.58;98809.53;1725337;81;21570;-60
2022/08/16 04:15:13;;;;;;;10.23;4.58;;;;;;;24.73;77.02;98815.22;1717749;81;21450;-60
2022/08/16 04:17:42;;;;;;;8.13;4.37;;;;;;;24.76;76.79;98810.02;1718017;81;22022;-60
2022/08/16 04:20:12;;;;;;;6.92;4.17;;;;;;;24.79;76.80;98809.16;1721552;81;21507;-60
2022/08/16 04:22:42;;;;;;;8.95;4.10;;;;;;;24.80;76.93;98804.61;1725232;81;21553;-60
2022/08/16 04:25:09;;;;;;;9.18;4.37;;;;;;;24.87;76.97;98813.64;1729611;81;21499;-60
2022/08/16 04:27:37;;;;;;;8.85;4.60;;;;;;;24.95;76.81;98806.03;1715030;81;21561;-60
2022/08/16 04:30:09;;;;;;;8.90;4.53;;;;;;;25.01;76.19;98808.00;1714389;81;21805;-61
2022/08/16 04:32:38;;;;;;;11.97;4.70;;;;;;;25.01;76.28;98798.59;1709366;82;21534;-62
2022/08/16 04:35:07;;;;;;;5.95;4.22;;;;;;;25.09;75.97;98799.89;1712756;81;22255;-65
2022/08/16 04:37:34;;;;;;;11.48;4.90;;;;;;;25.12;76.00;98807.58;1714456;81;22170;-61
2022/08/16 04:40:04;;;;;;;8.53;4.00;;;;;;;25.18;75.71;98806.86;1710758;81;21049;-61
2022/08/16 04:42:31;;;;;;;5.50;4.17;;;;;;;25.20;75.70;98811.58;1682872;84;21715;-61
2022/08/16 04:44:58;;;;;;;8.05;4.47;;;;;;;25.23;75.79;98812.57;1672886;84;21625;-62
2022/08/16 04:47:30;;;;;;;9.70;4.30;;;;;;;25.29;75.92;98816.39;1684360;83;21534;-61
2022/08/16 04:49:56;;;;;;;9.00;4.20;;;;;;;25.30;75.62;98818.08;1649777;83;21080;-61
2022/08/16 04:52:23;;;;;;;12.20;5.00;;;;;;;25.31;75.61;98820.25;1671548;84;21467;-61
2022/08/16 04:54:49;;;;;;;9.90;4.55;;;;;;;25.35;75.89;98822.39;1674606;84;21508;-61
2022/08/16 04:57:16;;;;;;;13.13;4.67;;;;;;;25.36;75.62;98834.01;1673925;84;21530;-61
2022/08/16 04:59:43;;;;;;;10.18;4.25;;;;;;;25.40;75.67;98833.45;1681396;83;21614;-62
2022/08/16 05:02:10;;;;;;;20.90;4.95;;;;;;;25.40;75.55;98833.45;1667524;83;21477;-61
2022/08/16 05:04:36;;;;;;;10.20;4.67;;;;;;;25.43;75.56;98828.23;1673972;83;21628;-61
2022/08/16 05:07:04;;;;;;;6.37;4.45;;;;;;;25.48;75.64;98825.81;1679276;84;21806;-61
2022/08/16 05:09:32;;;;;;;8.30;4.65;;;;;;;25.55;75.88;98821.39;1707034;81;21530;-61
2022/08/16 05:11:59;;;;;;;11.35;4.37;;;;;;;25.59;75.50;98821.86;1713577;83;21587;-61
2022/08/16 05:14:27;;;;;;;6.50;4.35;;;;;;;25.65;75.23;98822.47;1709635;82;20999;-60
2022/08/16 05:16:53;;;;;;;8.50;4.90;;;;;;;25.66;74.74;98818.77;1680612;83;21569;-60
2022/08/16 05:19:20;;;;;;;9.73;4.45;;;;;;;25.73;74.71;98825.11;1712330;81;21953;-60
2022/08/16 05:21:52;;;;;;;8.45;4.47;;;;;;;25.81;74.65;98836.30;1710729;82;21439;-60
2022/08/16 05:24:18;;;;;;;8.60;4.75;;;;;;;25.94;74.35;98841.92;1711715;81;21527;-60
2022/08/16 05:26:45;;;;;;;10.48;5.72;;;;;;;26.07;73.77;98835.03;1711230;81;21452;-61
2022/08/16 05:29:13;;;;;;;5.17;4.58;;;;;;;26.12;73.82;98840.20;1721805;81;21427;-61
2022/08/16 05:31:39;;;;;;;8.43;4.93;;;;;;;26.18;73.89;98839.96;1672854;83;21959;-60
2022/08/16 05:34:06;;;;;;;8.55;4.25;;;;;;;26.23;74.32;98851.03;1669905;85;21149;-61
2022/08/16 05:36:33;;;;;;;10.15;4.40;;;;;;;26.27;73.70;98846.94;1680041;84;21562;-61
2022/08/16 05:39:00;;;;;;;8.90;4.65;;;;;;;26.32;73.44;98851.78;1679051;84;21506;-61
2022/08/16 05:41:27;;;;;;;7.90;4.40;;;;;;;26.38;73.34;98859.11;1684568;84;21562;-61
2022/08/16 05:43:54;;;;;;;8.80;4.47;;;;;;;26.48;73.44;98857.47;1684140;83;21919;-61
2022/08/16 05:46:25;;;;;;;11.15;4.55;;;;;;;26.56;72.85;98851.48;1670819;83;21586;-61
2022/08/16 05:48:52;;;;;;;8.38;5.00;;;;;;;26.63;72.70;98865.58;1671515;83;20965;-61
2022/08/16 05:51:19;;;;;;;11.95;5.40;;;;;;;26.72;72.24;98862.58;1698980;82;21590;-61
2022/08/16 05:53:45;;;;;;;8.58;5.10;;;;;;;26.77;71.51;98860.16;1665776;83;21469;-61
2022/08/16 05:56:14;;;;;;;19.62;5.60;;;;;;;26.86;71.02;98853.30;1684045;83;21848;-61
2022/08/16 05:58:42;;;;;;;9.15;4.65;;;;;;;26.89;70.70;98852.93;1691496;82;21499;-62
2022/08/16 06:01:11;;;;;;;7.87;4.62;;;;;;;26.96;70.45;98845.23;1680403;84;21035;-61
2022/08/16 06:03:38;;;;;;;10.38;5.08;;;;;;;26.99;69.68;98840.81;1658147;84;21639;-61
2022/08/16 06:06:16;;;;;;;8.38;4.58;;;;;;;27.08;69.39;98841.52;1658886;84;21596;-61
2022/08/16 06:08:43;;;;;;;10.65;5.30;;;;;;;27.13;68.05;98845.00;1681024;84;21814;-64
2022/08/16 06:11:10;;;;;;;9.85;4.60;;;;;;;27.13;67.98;98852.57;1680736;84;21566;-61
2022/08/16 06:13:37;;;;;;;8.20;5.00;;;;;;;27.08;66.92;98861.74;1666171;83;21530;-69
2022/08/16 06:16:06;;;;;;;7.33;4.83;;;;;;;27.08;67.66;98852.83;1696856;83;21557;-69
2022/08/16 06:18:33;;;;;;;10.60;4.50;;;;;;;27.05;67.71;98859.94;1698573;83;21097;-66
2022/08/16 06:21:00;;;;;;;11.95;5.12;;;;;;;26.97;67.46;98855.50;1681939;83;21870;-67
2022/08/16 06:23:26;;;;;;;14.63;5.17;;;;;;;26.91;67.51;98849.53;1691255;82;21585;-66
2022/08/16 06:25:55;;;;;;;10.80;4.70;;;;;;;26.89;67.89;98850.23;1698553;83;21583;-66
2022/08/16 06:28:23;;;;;;;10.28;5.47;;;;;;;26.88;67.69;98856.64;1695893;82;21464;-67
2022/08/16 06:30:50;;;;;;;9.50;5.00;;;;;;;26.90;67.19;98862.19;1698477;82;21420;-64
2022/08/16 06:33:17;;;;;;;19.65;5.08;;;;;;;26.91;66.29;98872.45;1697277;82;22038;-64
2022/08/16 06:35:45;;;;;;;6.27;4.27;;;;;;;26.89;66.56;98882.08;1732561;82;21546;-64
2022/08/16 06:38:12;;;;;;;8.53;5.28;;;;;;;26.88;66.93;98896.59;1727982;82;21593;-64
2022/08/16 06:40:38;;;;;;;13.13;5.60;;;;;;;26.80;66.61;98885.41;1721882;82;21491;-63
2022/08/16 06:43:05;;;;;;;9.23;4.60;;;;;;;26.81;66.77;98887.59;1735350;82;21494;-64
2022/08/16 06:45:36;;;;;;;12.07;4.83;;;;;;;26.79;67.12;98896.37;1719947;80;21573;-62
2022/08/16 06:48:09;;;;;;;8.83;4.90;;;;;;;26.75;67.27;98897.78;1687455;82;21550;-64
2022/08/16 06:50:36;;;;;;;13.43;5.12;;;;;;;26.70;67.36;98909.12;1730595;80;21085;-65
2022/08/16 06:53:05;;;;;;;11.65;5.55;;;;;;;26.64;68.16;98931.44;1719619;81;21524;-64
2022/08/16 06:55:33;;;;;;;9.13;5.62;;;;;;;26.61;69.10;98939.89;1738376;80;21535;-64
2022/08/16 06:58:01;;;;;;;;;;;;;;;26.56;69.81;98951.70;1737494;80;21883;-64
2022/08/16 07:00:28;;;;;;;11.18;5.40;;;;;;;26.51;70.88;98959.01;1734356;80;21108;-65
2022/08/16 07:03:00;;;;;;;9.13;5.03;;;;;;;26.45;70.95;98960.25;1730377;82;21487;-65
2022/08/16 07:05:30;;;;;;;10.45;5.33;;;;;;;26.37;71.79;98965.21;1738336;82;21554;-66
2022/08/16 07:07:57;;;;;;;12.80;5.78;;;;;;;26.35;72.30;98957.34;1734171;80;21546;-66
2022/08/16 07:10:26;;;;;;;17.52;5.65;;;;;;;26.26;73.24;98963.83;1734652;81;21831;-64
2022/08/16 07:12:53;;;;;;;14.70;5.67;;;;;;;26.19;73.54;98962.36;1730258;80;21458;-64
2022/08/16 07:15:20;;;;;;;10.53;5.78;;;;;;;26.14;74.44;98971.48;1732215;80;21010;-65
2022/08/16 07:17:48;;;;;;;9.15;5.47;;;;;;;26.15;74.97;98968.31;1738159;80;21593;-68
2022/08/16 07:20:16;;;;;;;11.57;6.33;;;;;;;26.20;74.96;98961.84;1736965;82;21707;-67
2022/08/16 07:22:51;;;;;;;14.05;5.97;;;;;;;26.22;75.25;98967.91;1735289;80;21825;-67
2022/08/16 07:25:20;;;;;;;14.85;6.42;;;;;;;26.22;75.69;98969.26;1723044;80;21498;-67
2022/08/16 07:27:48;;;;;;;10.15;6.17;;;;;;;26.22;75.83;98971.44;1729960;80;21587;-66
2022/08/16 07:30:17;;;;;;;11.53;5.80;;;;;;;26.19;76.21;98975.83;1727725;80;21532;-65
2022/08/16 07:32:43;;;;;;;13.03;5.10;;;;;;;26.15;76.58;98981.26;1734089;81;21598;-66
2022/08/16 07:35:10;;;;;;;14.60;6.53;;;;;;;26.12;76.91;98974.88;1737784;80;21814;-66
2022/08/16 07:37:37;;;;;;;13.95;5.72;;;;;;;26.07;78.26;98997.98;1733218;80;21073;-65
2022/08/16 07:40:15;;;;;;;;;;;;;;;25.99;81.86;99008.32;1702039;81;21592;-67
2022/08/16 07:42:43;;;;;;;19.00;6.42;;;;;;;25.81;87.67;99028.28;1728993;82;20329;-65
2022/08/16 07:45:10;;;;;;;12.33;5.53;;;;;;;25.45;91.35;99027.50;1732318;80;21009;-65
2022/08/16 07:47:39;;;;;;;6.72;4.92;;;;;;;25.24;91.23;99034.84;1740173;81;21758;-65
2022/08/16 07:50:07;;;;;;;;;;;;;;;25.09;92.75;99045.11;1737667;80;21487;-65
2022/08/16 07:52:34;;;;;;;11.10;4.87;;;;;;;24.98;95.47;99059.78;1732859;79;20480;-66
2022/08/16 07:55:00;;;;;;;9.20;4.95;;;;;;;24.84;95.69;99064.00;1738521;80;21472;-66
2022/08/16 07:57:27;;;;;;;8.75;4.40;;;;;;;24.81;97.27;99068.40;1733966;79;21404;-66
2022/08/16 07:59:54;;;;;;;8.28;4.50;;;;;;;24.83;97.79;99065.86;1732386;80;22123;-66
2022/08/16 08:02:20;;;;;;;6.92;4.25;;;;;;;24.88;98.26;99061.30;1737833;80;21595;-66
2022/08/16 08:04:49;;;;;;;6.75;4.78;;;;;;;24.92;99.36;99061.31;1700723;82;21533;-67
2022/08/16 08:07:16;;;;;;;6.55;4.90;;;;;;;24.98;99.11;99052.55;1679166;83;21479;-67
2022/08/16 08:09:45;;;;;;;10.85;4.00;;;;;;;25.05;99.11;99045.95;1696537;81;21561;-65
2022/08/16 08:12:11;;;;;;;7.50;4.30;;;;;;;25.04;99.14;99045.64;1688507;81;21883;-66
2022/08/16 08:14:40;;;;;;;8.80;4.35;;;;;;;25.10;98.51;99042.77;1701523;81;21596;-66
2022/08/16 08:17:08;;;;;;;7.17;4.28;;;;;;;25.22;98.45;99046.73;1709918;81;21494;-65
2022/08/16 08:19:36;;;;;;;11.30;4.22;;;;;;;25.28;97.64;99035.81;1695480;82;21077;-66
2022/08/16 08:22:04;;;;;;;8.90;3.83;;;;;;;25.28;98.25;99029.09;1694976;81;22374;-65
2022/08/16 08:24:37;;;;;;;7.40;4.30;;;;;;;25.19;97.70;99009.44;1694270;81;22035;-66
2022/08/16 08:27:07;;;;;;;6.10;3.85;;;;;;;25.31;97.99;99020.67;1687748;83;21017;-65
2022/08/16 08:29:35;;;;;;;9.10;3.77;;;;;;;25.37;97.57;99019.97;1700908;81;21550;-64
2022/08/16 08:32:04;;;;;;;12.13;4.47;;;;;;;25.42;96.33;99011.69;1705429;83;21575;-65
2022/08/16 08:34:31;;;;;;;9.45;3.85;;;;;;;25.43;95.36;99016.08;1708871;81;21577;-64
2022/08/16 08:36:58;;;;;;;8.43;4.58;;;;;;;25.49;95.23;99021.77;1674705;83;22050;-64
2022/08/16 08:39:26;;;;;;;9.33;3.62;;;;;;;25.45;94.83;99014.56;1738261;80;21521;-65
2022/08/16 08:41:53;;;;;;;7.78;3.62;;;;;;;25.51;95.28;99026.47;1744188;80;21605;-65
2022/08/16 08:44:21;;;;;;;5.17;3.20;;;;;;;25.54;96.08;99028.30;1722076;81;21540;-64
2022/08/16 08:46:48;;;;;;;8.10;3.10;;;;;;;25.64;95.81;99032.94;1742588;81;21589;-65
2022/08/16 08:49:15;;;;;;;8.30;3.08;;;;;;;25.65;95.84;99043.19;1748603;80;21905;-69
2022/08/16 08:51:43;;;;;;;3.35;2.98;;;;;;;25.69;95.88;99043.16;1749007;80;21408;-65
2022/08/16 08:54:13;;;;;;;5.65;3.02;;;;;;;25.67;96.03;99044.36;1743386;80;21420;-65
2022/08/16 08:56:41;;;;;;;3.75;2.90;;;;;;;25.62;96.11;99047.60;1743466;80;21455;-65
2022/08/16 08:59:11;;;;;;;8.95;3.25;;;;;;;25.63;96.90;99049.26;1704850;81;20962;-64
2022/08/16 09:01:39;;;;;;;5.70;2.72;;;;;;;25.58;97.07;99053.84;1741686;81;21485;-65
2022/08/16 09:04:07;;;;;;;;;;;;;;;25.53;97.59;99056.73;1679490;83;21495;-64
2022/08/16 09:06:34;;;;;;;7.00;2.63;;;;;;;25.44;97.79;99063.48;1704440;83;20419;-64
2022/08/16 09:09:03;;;;;;;8.88;3.00;;;;;;;25.30;98.25;99068.27;1736922;80;21439;-65
2022/08/16 09:11:30;;;;;;;7.95;2.55;;;;;;;25.19;98.24;99073.48;1740041;80;21023;-64
2022/08/16 09:13:57;;;;;;;2.95;2.62;;;;;;;25.10;98.92;99069.14;1743277;81;21556;-65
2022/08/16 09:16:24;;;;;;;2.92;2.55;;;;;;;25.09;100.00;99080.06;1743909;81;21629;-64
2022/08/16 09:18:51;;;;;;;;;;;;;;;25.06;100.00;99089.33;1748419;80;21582;-65
2022/08/16 09:21:19;;;;;;;3.77;2.98;;;;;;;25.01;100.00;99090.34;1740514;80;20423;-65
2022/08/16 09:23:46;;;;;;;7.62;2.80;;;;;;;24.98;100.00;99089.36;1742271;80;21621;-65
2022/08/16 09:26:14;;;;;;;4.60;3.10;;;;;;;25.01;100.00;99087.66;1742318;80;21897;-64
2022/08/16 09:28:43;;;;;;;5.67;3.27;;;;;;;25.03;100.00;99097.25;1741432;80;23318;-65
2022/08/16 09:31:15;;;;;;;7.17;3.20;;;;;;;25.11;100.00;99108.48;1722126;80;21537;-67
2022/08/16 09:33:42;;;;;;;5.50;3.43;;;;;;;25.16;100.00;99114.68;1684043;84;21476;-65
2022/08/16 09:36:09;;;;;;;4.83;3.30;;;;;;;25.22;100.00;99108.59;1680801;83;21547;-65
2022/08/16 09:38:38;;;;;;;6.85;3.75;;;;;;;25.22;100.00;99108.59;1669757;84;21848;-66
2022/08/16 09:41:06;;;;;;;5.10;3.58;;;;;;;25.24;100.00;99102.09;1678057;84;21603;-65
2022/08/16 09:43:34;;;;;;;6.17;3.20;;;;;;;25.32;100.00;99106.60;1712484;82;21496;-63
2022/08/16 09:46:02;;;;;;;4.67;3.00;;;;;;;25.45;100.00;99101.50;1714153;81;21431;-64
2022/08/16 09:48:31;;;;;;;3.37;3.05;;;;;;;25.49;100.00;99106.55;1711447;82;21637;-63
2022/08/16 09:50:57;;;;;;;4.95;3.02;;;;;;;25.50;100.00;99100.13;1719866;81;21545;-64
2022/08/16 09:53:25;;;;;;;3.90;3.22;;;;;;;25.54;100.00;99104.14;1711144;82;21571;-63
2022/08/16 09:55:53;;;;;;;5.58;3.95;;;;;;;25.54;100.00;99112.22;1711657;82;21530;-65
2022/08/16 09:58:24;;;;;;;7.37;3.45;;;;;;;25.47;100.00;99105.37;1687739;83;21490;-65
2022/08/16 10:00:51;;;;;;;5.33;3.75;;;;;;;25.48;100.00;99102.99;1710783;81;21468;-65
2022/08/16 10:03:18;;;;;;;5.55;3.52;;;;;;;25.44;100.00;99106.53;1680692;83;21794;-65
2022/08/16 10:05:44;;;;;;;4.30;3.02;;;;;;;25.38;99.32;99099.17;1717316;81;21566;-66
2022/08/16 10:08:15;;;;;;;4.83;3.87;;;;;;;25.33;100.00;99102.05;1710893;81;21589;-65
2022/08/16 10:13:10;;;;;;;5.20;3.55;;;;;;;25.30;100.00;99095.17;1712751;81;21502;-65
2022/08/16 10:13:11;;;;;;;7.08;3.80;;;;;;;25.32;100.00;99093.66;1704258;81;21453;-68
2022/08/16 10:15:41;;;;;;;7.03;3.72;;;;;;;25.42;100.00;99098.31;1678073;84;21790;-66
2022/08/16 10:18:08;;;;;;;4.53;3.77;;;;;;;25.49;100.00;99096.61;1662792;84;21541;-67
2022/08/16 10:20:38;;;;;;;5.80;3.80;;;;;;;25.54;100.00;99099.63;1661005;84;21658;-67
2022/08/16 10:23:09;;;;;;;5.33;3.50;;;;;;;25.61;100.00;99103.27;1659247;84;21644;-65
2022/08/16 10:25:40;;;;;;;5.42;3.62;;;;;;;25.76;100.00;99090.41;1677821;84;21596;-66
2022/08/16 10:28:08;;;;;;;9.73;4.08;;;;;;;25.88;99.96;99089.49;1670867;83;22063;-66
2022/08/16 10:30:36;;;;;;;;;;;;;;;25.99;98.92;99081.04;1660406;84;21123;-67
2022/08/16 10:33:03;;;;;;;5.08;4.00;;;;;;;26.07;98.18;99080.14;1690891;83;20457;-66
2022/08/16 10:35:31;;;;;;;8.60;3.90;;;;;;;26.11;97.06;99073.41;1702401;83;21532;-65
2022/08/16 10:37:57;;;;;;;5.00;3.80;;;;;;;26.23;97.41;99088.11;1692108;83;21482;-67
2022/08/16 10:40:28;;;;;;;4.45;3.80;;;;;;;26.26;98.50;99105.77;1702275;81;22031;-67
2022/08/16 10:42:55;;;;;;;5.67;3.42;;;;;;;26.26;98.10;99111.16;1695516;81;21600;-66
2022/08/16 10:45:21;;;;;;;6.33;4.08;;;;;;;26.22;97.68;99108.84;1698422;83;21486;-66
2022/08/16 10:47:48;;;;;;;4.28;3.50;;;;;;;26.14;97.70;99110.73;1694994;81;21517;-65
2022/08/16 10:50:16;;;;;;;4.90;3.60;;;;;;;26.05;98.25;99119.40;1703636;81;21620;-66
2022/08/16 10:52:43;;;;;;;6.12;4.17;;;;;;;26.01;98.15;99123.44;1699776;81;21542;-64
2022/08/16 10:55:11;;;;;;;5.10;4.07;;;;;;;25.95;98.74;99131.72;1701975;83;21474;-67
2022/08/16 10:57:38;;;;;;;6.42;4.03;;;;;;;25.96;98.75;99131.23;1700250;81;21547;-64
2022/08/16 11:00:14;;;;;;;6.22;4.58;;;;;;;25.94;98.54;99127.89;1701523;81;21594;-65
2022/08/16 11:02:43;;;;;;;5.60;4.60;;;;;;;25.84;98.22;99131.61;1694747;81;21488;-68
2022/08/16 11:05:12;;;;;;;5.75;4.58;;;;;;;25.75;98.90;99131.80;1685326;82;21820;-66
2022/08/16 11:07:43;;;;;;;7.85;4.78;;;;;;;25.72;99.67;99132.17;1693748;82;21015;-65
2022/08/16 11:10:10;;;;;;;4.70;4.28;;;;;;;25.73;100.00;99131.14;1683960;83;21538;-67
2022/08/16 11:12:38;;;;;;;8.98;5.20;;;;;;;25.75;100.00;99136.70;1699761;82;21543;-67
2022/08/16 11:15:05;;;;;;;5.87;4.35;;;;;;;25.83;100.00;99141.20;1698272;83;21049;-67
2022/08/16 11:17:32;;;;;;;7.33;4.30;;;;;;;25.88;100.00;99144.21;1707551;81;21882;-67
2022/08/16 11:19:59;;;;;;;10.23;4.65;;;;;;;26.03;100.00;99145.16;1694042;83;21498;-67
2022/08/16 11:22:26;;;;;;;7.83;4.60;;;;;;;26.17;100.00;99149.45;1693213;81;21480;-67
2022/08/16 11:24:53;;;;;;;;;;;;;;;26.32;99.45;99141.44;1701625;82;21581;-67
2022/08/16 11:27:21;;;;;;;8.17;5.10;;;;;;;26.45;97.41;99128.69;1692330;81;20151;-67
2022/08/16 11:29:48;;;;;;;;;;;;;;;26.55;96.92;99136.86;1708069;82;22188;-67
2022/08/16 11:32:16;;;;;;;;;;;;;;;26.65;97.19;99132.59;1703376;82;20266;-68
2022/08/16 11:34:43;;;;;;;8.33;4.10;;;;;;;26.74;95.80;99127.98;1700500;83;20410;-67
2022/08/16 11:37:09;;;;;;;7.95;5.17;;;;;;;26.83;95.38;99135.50;1706006;81;21026;-66
2022/08/16 11:39:36;;;;;;;9.43;4.57;;;;;;;26.95;93.86;99129.45;1682863;82;21757;-66